MRAM weather

Amubri Airport
Amubri, Limon, Costa Rica

Public forecast

Using degrees Celsius for public forecast. Weather courtesy of forecast.io.

Closest aviation weather report (METAR) to Amubri Airport

Report is more than 6 hours old.

Closest report is Cap Manuel NiƱo International Airport, 26.3 nm (48.7 km) E. Retrieved 2019/08/28 01:00 UTC (7 months ago):

MPCH 280100Z 00000KT 9999 FEW030 SCT080 Q1012 RMK HZ S-SW

Closest aviation forecast (TAF) to Amubri Airport

Closest forecast is Limon International Airport, 26.5 nm (49.1 km) N. Retrieved 2020/04/05 18:03 UTC (4 hours ago):

TAF MRLM 051700Z 0518/0618 09005KT 9999 FEW030 31/0520Z 22/0611Z BECMG 0600/0602 25005KT TEMPO 0606/0612 DZ BKN015 BECMG 0615/0617 07005KT